Terminal Aerodrome Forecast
Issued by NWS Twin Cities, MN

Home | Current Version | Previous Version | Graphics & Text | Print | Product List | Glossary On
Versions: 1 2 3 4 5 6 7 8 9 10 11 12 13 14 15 16 17 18 19 20 21 22 23
000
FTUS43 KMPX 240500 RRA
TAFEAU
TAF
KEAU 240542Z 2406/2506 31009KT 4SM -RA BR OVC006
      TEMPO 2406/2409 P6SM -RA OVC010
     FM241000 30014G25KT 3SM -SN BR OVC006
     FM242100 31016G27KT 6SM -SHSN OVC012 PROB30 2422/2502 5SM -FZDZ
      BR=

USA.gov is the U.S. government's official web portal to all federal, state and local government web resources and services.